sensor_id;sensor_type;location;lat;lon;timestamp;pressure;altitude;pressure_sealevel;temperature;humidity
52777;BME280;38656;54.260;20.822;2023-03-23T00:00:13;100109.75;;;16.95;100.00
52777;BME280;38656;54.260;20.822;2023-03-23T00:02:39;100102.03;;;17.08;100.00
52777;BME280;38656;54.260;20.822;2023-03-23T00:05:07;100090.22;;;17.80;100.00
52777;BME280;38656;54.260;20.822;2023-03-23T00:07:34;100095.13;;;16.91;100.00
52777;BME280;38656;54.260;20.822;2023-03-23T00:10:01;100097.53;;;16.53;100.00
52777;BME280;38656;54.260;20.822;2023-03-23T00:12:30;100097.00;;;17.13;100.00
52777;BME280;38656;54.260;20.822;2023-03-23T00:17:27;100103.38;;;17.36;100.00
52777;BME280;38656;54.260;20.822;2023-03-23T00:19:54;100095.56;;;16.55;100.00
52777;BME280;38656;54.260;20.822;2023-03-23T00:22:20;100094.03;;;17.08;100.00
52777;BME280;38656;54.260;20.822;2023-03-23T00:24:48;100086.09;;;16.92;100.00
52777;BME280;38656;54.260;20.822;2023-03-23T00:27:17;100087.25;;;17.98;100.00
52777;BME280;38656;54.260;20.822;2023-03-23T00:29:44;100077.47;;;17.44;100.00
52777;BME280;38656;54.260;20.822;2023-03-23T00:32:13;100085.13;;;17.47;100.00
52777;BME280;38656;54.260;20.822;2023-03-23T00:34:40;100081.94;;;16.33;100.00
52777;BME280;38656;54.260;20.822;2023-03-23T00:37:11;100081.81;;;17.92;100.00
52777;BME280;38656;54.260;20.822;2023-03-23T00:39:38;100079.50;;;16.71;100.00
52777;BME280;38656;54.260;20.822;2023-03-23T00:42:05;100084.59;;;17.21;100.00
52777;BME280;38656;54.260;20.822;2023-03-23T00:44:32;100077.72;;;17.03;100.00
52777;BME280;38656;54.260;20.822;2023-03-23T00:47:01;100070.47;;;17.90;100.00
52777;BME280;38656;54.260;20.822;2023-03-23T00:49:29;100070.88;;;17.32;100.00
52777;BME280;38656;54.260;20.822;2023-03-23T00:51:57;100063.94;;;17.46;100.00
52777;BME280;38656;54.260;20.822;2023-03-23T00:54:24;100063.31;;;17.82;100.00
52777;BME280;38656;54.260;20.822;2023-03-23T00:56:51;100063.81;;;18.53;100.00
52777;BME280;38656;54.260;20.822;2023-03-23T00:59:18;100058.94;;;16.88;100.00
52777;BME280;38656;54.260;20.822;2023-03-23T01:01:45;100058.78;;;17.91;100.00
52777;BME280;38656;54.260;20.822;2023-03-23T01:04:11;100072.13;;;16.90;100.00
52777;BME280;38656;54.260;20.822;2023-03-23T01:06:41;100064.56;;;17.94;100.00
52777;BME280;38656;54.260;20.822;2023-03-23T01:09:13;100050.78;;;16.90;100.00
52777;BME280;38656;54.260;20.822;2023-03-23T01:11:43;100046.75;;;18.10;100.00
52777;BME280;38656;54.260;20.822;2023-03-23T01:14:10;100043.63;;;17.60;100.00
52777;BME280;38656;54.260;20.822;2023-03-23T01:16:36;100049.97;;;17.12;100.00
52777;BME280;38656;54.260;20.822;2023-03-23T01:19:03;100056.28;;;17.20;100.00
52777;BME280;38656;54.260;20.822;2023-03-23T01:21:29;100044.28;;;17.39;100.00
52777;BME280;38656;54.260;20.822;2023-03-23T01:23:55;100044.44;;;18.21;100.00
52777;BME280;38656;54.260;20.822;2023-03-23T01:26:23;100049.97;;;18.05;100.00
52777;BME280;38656;54.260;20.822;2023-03-23T01:28:50;100040.94;;;18.66;100.00
52777;BME280;38656;54.260;20.822;2023-03-23T01:31:19;100055.34;;;17.59;100.00
52777;BME280;38656;54.260;20.822;2023-03-23T01:33:45;100058.88;;;17.74;100.00
52777;BME280;38656;54.260;20.822;2023-03-23T01:36:17;100054.88;;;17.32;100.00
52777;BME280;38656;54.260;20.822;2023-03-23T01:38:45;100045.91;;;18.39;100.00
52777;BME280;38656;54.260;20.822;2023-03-23T01:41:13;100041.84;;;18.13;100.00
52777;BME280;38656;54.260;20.822;2023-03-23T01:46:44;100036.44;;;19.39;100.00
52777;BME280;38656;54.260;20.822;2023-03-23T01:49:36;100038.09;;;17.46;100.00
52777;BME280;38656;54.260;20.822;2023-03-23T01:52:25;100033.22;;;17.88;100.00
52777;BME280;38656;54.260;20.822;2023-03-23T01:54:53;100042.94;;;18.93;100.00
52777;BME280;38656;54.260;20.822;2023-03-23T01:57:23;100031.22;;;18.80;97.56
52777;BME280;38656;54.260;20.822;2023-03-23T01:59:54;100035.56;;;19.39;97.37
52777;BME280;38656;54.260;20.822;2023-03-23T02:02:23;100039.81;;;19.48;98.75
52777;BME280;38656;54.260;20.822;2023-03-23T02:04:50;100036.53;;;18.43;100.00
52777;BME280;38656;54.260;20.822;2023-03-23T02:07:19;100028.81;;;19.64;96.39
52777;BME280;38656;54.260;20.822;2023-03-23T02:09:46;100031.59;;;20.00;93.54
52777;BME280;38656;54.260;20.822;2023-03-23T02:12:12;100043.19;;;20.07;93.19
52777;BME280;38656;54.260;20.822;2023-03-23T02:14:39;100033.22;;;19.07;93.60
52777;BME280;38656;54.260;20.822;2023-03-23T02:20:28;100042.59;;;18.07;100.00
52777;BME280;38656;54.260;20.822;2023-03-23T02:23:25;100029.84;;;18.99;98.76
52777;BME280;38656;54.260;20.822;2023-03-23T02:26:03;100032.66;;;18.16;99.01
52777;BME280;38656;54.260;20.822;2023-03-23T02:31:44;100023.03;;;17.92;99.72
52777;BME280;38656;54.260;20.822;2023-03-23T02:39:25;100018.75;;;19.45;96.53
52777;BME280;38656;54.260;20.822;2023-03-23T02:41:58;100021.38;;;20.10;92.86
52777;BME280;38656;54.260;20.822;2023-03-23T02:44:28;100012.84;;;20.34;90.12
52777;BME280;38656;54.260;20.822;2023-03-23T02:46:57;100004.66;;;20.56;86.19
52777;BME280;38656;54.260;20.822;2023-03-23T02:49:26;100010.03;;;20.56;85.62
52777;BME280;38656;54.260;20.822;2023-03-23T02:51:57;100007.53;;;20.48;86.08
52777;BME280;38656;54.260;20.822;2023-03-23T02:54:25;100019.69;;;19.80;88.65
52777;BME280;38656;54.260;20.822;2023-03-23T02:56:53;100005.75;;;19.63;90.84
52777;BME280;38656;54.260;20.822;2023-03-23T02:59:21;99999.50;;;19.56;89.92
52777;BME280;38656;54.260;20.822;2023-03-23T03:02:00;99994.91;;;19.50;91.21
52777;BME280;38656;54.260;20.822;2023-03-23T03:04:30;99984.81;;;19.74;88.83
52777;BME280;38656;54.260;20.822;2023-03-23T03:09:55;99957.31;;;18.93;92.09
52777;BME280;38656;54.260;20.822;2023-03-23T03:12:27;99945.22;;;19.48;90.57
52777;BME280;38656;54.260;20.822;2023-03-23T03:17:49;99945.56;;;17.15;98.80
52777;BME280;38656;54.260;20.822;2023-03-23T03:20:17;99944.59;;;18.96;95.97
52777;BME280;38656;54.260;20.822;2023-03-23T03:22:46;99949.50;;;19.42;91.97
52777;BME280;38656;54.260;20.822;2023-03-23T03:25:14;99938.72;;;18.85;91.90
52777;BME280;38656;54.260;20.822;2023-03-23T03:27:45;99931.72;;;18.69;90.61
52777;BME280;38656;54.260;20.822;2023-03-23T03:30:19;99928.47;;;19.39;89.88
52777;BME280;38656;54.260;20.822;2023-03-23T03:32:49;99931.41;;;19.22;89.27
52777;BME280;38656;54.260;20.822;2023-03-23T03:35:20;99936.94;;;18.41;93.28
52777;BME280;38656;54.260;20.822;2023-03-23T03:37:48;99928.75;;;19.22;90.61
52777;BME280;38656;54.260;20.822;2023-03-23T03:40:17;99932.81;;;18.75;94.03
52777;BME280;38656;54.260;20.822;2023-03-23T03:42:44;99946.38;;;17.92;96.97
52777;BME280;38656;54.260;20.822;2023-03-23T03:45:14;99940.56;;;20.20;88.79
52777;BME280;38656;54.260;20.822;2023-03-23T03:47:41;99952.16;;;18.77;93.54
52777;BME280;38656;54.260;20.822;2023-03-23T03:50:07;99953.72;;;17.75;95.86
52777;BME280;38656;54.260;20.822;2023-03-23T03:52:34;99948.03;;;18.74;93.30
52777;BME280;38656;54.260;20.822;2023-03-23T03:55:01;99940.72;;;19.48;90.56
52777;BME280;38656;54.260;20.822;2023-03-23T03:57:27;99943.94;;;19.65;88.78
52777;BME280;38656;54.260;20.822;2023-03-23T03:59:53;99950.28;;;19.36;88.57
52777;BME280;38656;54.260;20.822;2023-03-23T04:02:19;99949.50;;;18.26;93.69
52777;BME280;38656;54.260;20.822;2023-03-23T04:04:49;99952.50;;;16.70;99.48
52777;BME280;38656;54.260;20.822;2023-03-23T04:07:18;99942.34;;;18.26;97.73
52777;BME280;38656;54.260;20.822;2023-03-23T04:09:45;99951.84;;;17.61;98.32
52777;BME280;38656;54.260;20.822;2023-03-23T04:12:14;99947.56;;;18.86;94.92
52777;BME280;38656;54.260;20.822;2023-03-23T04:14:40;99939.50;;;18.13;95.54
52777;BME280;38656;54.260;20.822;2023-03-23T04:17:07;99942.22;;;19.57;89.67
52777;BME280;38656;54.260;20.822;2023-03-23T04:19:36;99942.22;;;19.57;88.30
52777;BME280;38656;54.260;20.822;2023-03-23T04:22:04;99937.91;;;19.85;86.25
52777;BME280;38656;54.260;20.822;2023-03-23T04:24:30;99934.03;;;19.66;86.91
52777;BME280;38656;54.260;20.822;2023-03-23T04:26:59;99931.59;;;19.71;86.25
52777;BME280;38656;54.260;20.822;2023-03-23T04:29:26;99925.25;;;20.07;84.28
52777;BME280;38656;54.260;20.822;2023-03-23T04:31:52;99929.06;;;19.91;84.51
52777;BME280;38656;54.260;20.822;2023-03-23T04:34:21;99925.78;;;18.74;86.61
52777;BME280;38656;54.260;20.822;2023-03-23T04:36:48;99929.78;;;19.21;85.09
52777;BME280;38656;54.260;20.822;2023-03-23T04:39:14;99917.44;;;18.99;86.32
52777;BME280;38656;54.260;20.822;2023-03-23T04:41:41;99921.25;;;19.11;85.72
52777;BME280;38656;54.260;20.822;2023-03-23T04:44:08;99910.03;;;19.51;85.43
52777;BME280;38656;54.260;20.822;2023-03-23T04:46:34;99910.66;;;19.81;84.02
52777;BME280;38656;54.260;20.822;2023-03-23T04:49:00;99916.22;;;19.01;86.29
52777;BME280;38656;54.260;20.822;2023-03-23T04:51:29;99913.53;;;19.23;84.97
52777;BME280;38656;54.260;20.822;2023-03-23T04:53:55;99911.97;;;18.85;86.53
52777;BME280;38656;54.260;20.822;2023-03-23T04:56:22;99899.06;;;19.17;84.89
52777;BME280;38656;54.260;20.822;2023-03-23T04:58:48;99902.38;;;18.76;86.52
52777;BME280;38656;54.260;20.822;2023-03-23T05:01:14;99887.06;;;19.13;85.07
52777;BME280;38656;54.260;20.822;2023-03-23T05:03:41;99887.34;;;19.18;84.79
52777;BME280;38656;54.260;20.822;2023-03-23T05:06:07;99903.78;;;18.93;86.68
52777;BME280;38656;54.260;20.822;2023-03-23T05:08:35;99901.09;;;18.72;87.76
52777;BME280;38656;54.260;20.822;2023-03-23T05:11:05;99896.72;;;19.36;83.51
52777;BME280;38656;54.260;20.822;2023-03-23T05:13:32;99908.25;;;19.64;82.39
52777;BME280;38656;54.260;20.822;2023-03-23T05:16:02;99914.44;;;18.50;85.68
52777;BME280;38656;54.260;20.822;2023-03-23T05:18:29;99918.09;;;16.84;93.02
52777;BME280;38656;54.260;20.822;2023-03-23T05:20:55;99921.69;;;17.37;95.85
52777;BME280;38656;54.260;20.822;2023-03-23T05:23:25;99924.19;;;17.24;99.28
52777;BME280;38656;54.260;20.822;2023-03-23T05:25:55;99924.25;;;18.65;95.21
52777;BME280;38656;54.260;20.822;2023-03-23T05:28:21;99924.06;;;18.30;94.28
52777;BME280;38656;54.260;20.822;2023-03-23T05:30:48;99928.69;;;17.00;96.56
52777;BME280;38656;54.260;20.822;2023-03-23T05:33:15;99927.91;;;17.52;97.78
52777;BME280;38656;54.260;20.822;2023-03-23T05:35:41;99934.06;;;17.53;97.27
52777;BME280;38656;54.260;20.822;2023-03-23T05:38:07;99932.22;;;17.15;98.47
52777;BME280;38656;54.260;20.822;2023-03-23T05:40:33;99934.00;;;17.76;98.73
52777;BME280;38656;54.260;20.822;2023-03-23T05:42:59;99921.47;;;18.21;99.19
52777;BME280;38656;54.260;20.822;2023-03-23T05:45:26;99920.09;;;18.26;94.79
52777;BME280;38656;54.260;20.822;2023-03-23T05:47:52;99921.88;;;16.66;100.00
52777;BME280;38656;54.260;20.822;2023-03-23T05:50:19;99899.94;;;18.81;96.28
52777;BME280;38656;54.260;20.822;2023-03-23T05:52:45;99884.06;;;18.95;95.09
52777;BME280;38656;54.260;20.822;2023-03-23T05:55:12;99900.00;;;16.48;100.00
52777;BME280;38656;54.260;20.822;2023-03-23T05:57:38;99889.50;;;18.65;94.79
52777;BME280;38656;54.260;20.822;2023-03-23T06:00:07;99909.50;;;17.58;96.68
52777;BME280;38656;54.260;20.822;2023-03-23T06:02:40;99925.66;;;16.49;100.00
52777;BME280;38656;54.260;20.822;2023-03-23T06:05:11;99922.31;;;16.46;100.00
52777;BME280;38656;54.260;20.822;2023-03-23T06:07:37;99914.03;;;17.87;100.00
52777;BME280;38656;54.260;20.822;2023-03-23T06:10:05;99924.94;;;17.09;100.00
52777;BME280;38656;54.260;20.822;2023-03-23T06:12:33;99925.66;;;17.41;100.00
52777;BME280;38656;54.260;20.822;2023-03-23T06:15:00;99927.91;;;17.82;98.95
52777;BME280;38656;54.260;20.822;2023-03-23T06:17:26;99926.19;;;16.98;100.00
52777;BME280;38656;54.260;20.822;2023-03-23T06:19:53;99919.31;;;18.10;100.00
52777;BME280;38656;54.260;20.822;2023-03-23T06:22:19;99920.00;;;17.74;100.00
52777;BME280;38656;54.260;20.822;2023-03-23T06:24:46;99920.41;;;18.89;97.38
52777;BME280;38656;54.260;20.822;2023-03-23T06:27:13;99930.94;;;18.90;95.76
52777;BME280;38656;54.260;20.822;2023-03-23T06:29:40;99925.41;;;17.36;99.55
52777;BME280;38656;54.260;20.822;2023-03-23T06:32:07;99920.59;;;18.87;95.05
52777;BME280;38656;54.260;20.822;2023-03-23T06:34:36;99911.56;;;19.32;94.33
52777;BME280;38656;54.260;20.822;2023-03-23T06:37:02;99903.88;;;18.64;94.55
52777;BME280;38656;54.260;20.822;2023-03-23T06:39:29;99892.50;;;20.93;91.27
52777;BME280;38656;54.260;20.822;2023-03-23T06:41:57;99899.53;;;21.21;85.56
52777;BME280;38656;54.260;20.822;2023-03-23T06:44:25;99899.59;;;17.96;97.23
52777;BME280;38656;54.260;20.822;2023-03-23T06:46:51;99899.41;;;17.98;97.82
52777;BME280;38656;54.260;20.822;2023-03-23T06:49:18;99893.91;;;18.36;97.26
52777;BME280;38656;54.260;20.822;2023-03-23T06:51:45;99903.00;;;18.05;98.56
52777;BME280;38656;54.260;20.822;2023-03-23T06:54:11;99902.78;;;17.77;99.01
52777;BME280;38656;54.260;20.822;2023-03-23T06:56:37;99896.38;;;18.74;96.31
52777;BME280;38656;54.260;20.822;2023-03-23T06:59:04;99897.91;;;19.26;93.87
52777;BME280;38656;54.260;20.822;2023-03-23T07:01:30;99907.34;;;17.38;99.52
52777;BME280;38656;54.260;20.822;2023-03-23T07:03:56;99905.09;;;18.25;97.34
52777;BME280;38656;54.260;20.822;2023-03-23T07:06:24;99905.53;;;18.28;97.73
52777;BME280;38656;54.260;20.822;2023-03-23T07:08:51;99903.53;;;18.67;96.94
52777;BME280;38656;54.260;20.822;2023-03-23T07:11:17;99905.81;;;19.13;96.86
52777;BME280;38656;54.260;20.822;2023-03-23T07:13:44;99908.63;;;19.05;94.34
52777;BME280;38656;54.260;20.822;2023-03-23T07:16:11;99918.66;;;18.60;97.18
52777;BME280;38656;54.260;20.822;2023-03-23T07:18:37;99920.88;;;19.14;97.42
52777;BME280;38656;54.260;20.822;2023-03-23T07:21:04;99912.59;;;18.72;98.19
52777;BME280;38656;54.260;20.822;2023-03-23T07:23:30;99919.03;;;18.05;95.70
52777;BME280;38656;54.260;20.822;2023-03-23T07:25:57;99919.97;;;18.85;96.15
52777;BME280;38656;54.260;20.822;2023-03-23T07:28:23;99917.91;;;18.66;97.71
52777;BME280;38656;54.260;20.822;2023-03-23T07:30:50;99900.09;;;19.44;95.34
52777;BME280;38656;54.260;20.822;2023-03-23T07:33:16;99901.34;;;20.12;94.47
52777;BME280;38656;54.260;20.822;2023-03-23T07:35:43;99900.44;;;19.35;91.68
52777;BME280;38656;54.260;20.822;2023-03-23T07:38:09;99880.06;;;20.65;87.92
52777;BME280;38656;54.260;20.822;2023-03-23T07:40:36;99875.69;;;19.96;88.46
52777;BME280;38656;54.260;20.822;2023-03-23T07:43:03;99859.38;;;20.46;89.52
52777;BME280;38656;54.260;20.822;2023-03-23T07:45:31;99874.19;;;20.28;88.17
52777;BME280;38656;54.260;20.822;2023-03-23T07:47:57;99875.59;;;18.54;90.46
52777;BME280;38656;54.260;20.822;2023-03-23T07:50:24;99865.19;;;18.60;93.84
52777;BME280;38656;54.260;20.822;2023-03-23T07:52:55;99849.78;;;20.10;89.76
52777;BME280;38656;54.260;20.822;2023-03-23T07:55:22;99842.66;;;19.82;87.43
52777;BME280;38656;54.260;20.822;2023-03-23T07:57:52;99836.97;;;19.28;88.79
52777;BME280;38656;54.260;20.822;2023-03-23T08:00:20;99824.22;;;20.07;86.50
52777;BME280;38656;54.260;20.822;2023-03-23T08:02:51;99827.25;;;20.73;84.31
52777;BME280;38656;54.260;20.822;2023-03-23T08:05:18;99824.00;;;19.67;86.17
52777;BME280;38656;54.260;20.822;2023-03-23T08:07:44;99821.88;;;20.86;84.26
52777;BME280;38656;54.260;20.822;2023-03-23T08:10:12;99825.41;;;20.93;83.35
52777;BME280;38656;54.260;20.822;2023-03-23T08:12:39;99832.38;;;19.22;85.96
52777;BME280;38656;54.260;20.822;2023-03-23T08:15:07;99830.09;;;20.58;86.17
52777;BME280;38656;54.260;20.822;2023-03-23T08:17:34;99818.31;;;23.00;75.07
52777;BME280;38656;54.260;20.822;2023-03-23T08:20:02;99810.03;;;23.27;73.28
52777;BME280;38656;54.260;20.822;2023-03-23T08:22:35;99816.53;;;20.93;76.03
52777;BME280;38656;54.260;20.822;2023-03-23T08:25:02;99804.13;;;20.98;77.57
52777;BME280;38656;54.260;20.822;2023-03-23T08:27:29;99782.41;;;21.33;78.73
52777;BME280;38656;54.260;20.822;2023-03-23T08:29:56;99778.50;;;20.62;76.33
52777;BME280;38656;54.260;20.822;2023-03-23T08:32:22;99786.38;;;20.71;75.56
52777;BME280;38656;54.260;20.822;2023-03-23T08:34:49;99811.88;;;21.47;75.07
52777;BME280;38656;54.260;20.822;2023-03-23T08:37:15;99817.75;;;21.17;74.24
52777;BME280;38656;54.260;20.822;2023-03-23T08:39:42;99795.25;;;21.04;74.68
52777;BME280;38656;54.260;20.822;2023-03-23T08:42:10;99796.22;;;20.37;77.96
52777;BME280;38656;54.260;20.822;2023-03-23T08:44:37;99784.16;;;19.92;78.86
52777;BME280;38656;54.260;20.822;2023-03-23T08:47:04;99778.09;;;20.52;76.26
52777;BME280;38656;54.260;20.822;2023-03-23T08:49:31;99770.81;;;20.06;79.39
52777;BME280;38656;54.260;20.822;2023-03-23T08:52:00;99777.03;;;21.33;74.41
52777;BME280;38656;54.260;20.822;2023-03-23T08:54:26;99785.47;;;21.37;73.41
52777;BME280;38656;54.260;20.822;2023-03-23T08:56:53;99790.00;;;21.43;70.77
52777;BME280;38656;54.260;20.822;2023-03-23T08:59:21;99788.03;;;20.78;74.34
52777;BME280;38656;54.260;20.822;2023-03-23T09:01:48;99793.78;;;20.55;74.45
52777;BME280;38656;54.260;20.822;2023-03-23T09:04:15;99785.53;;;20.57;76.44
52777;BME280;38656;54.260;20.822;2023-03-23T09:06:41;99791.53;;;20.65;76.05
52777;BME280;38656;54.260;20.822;2023-03-23T09:09:07;99803.66;;;20.41;74.71
52777;BME280;38656;54.260;20.822;2023-03-23T09:11:35;99790.63;;;19.70;78.82
52777;BME280;38656;54.260;20.822;2023-03-23T09:14:03;99798.34;;;20.61;77.26
52777;BME280;38656;54.260;20.822;2023-03-23T09:16:30;99780.28;;;21.49;75.80
52777;BME280;38656;54.260;20.822;2023-03-23T09:18:57;99782.13;;;20.01;78.32
52777;BME280;38656;54.260;20.822;2023-03-23T09:21:25;99780.53;;;20.27;77.25
52777;BME280;38656;54.260;20.822;2023-03-23T09:23:52;99769.38;;;22.34;72.27
52777;BME280;38656;54.260;20.822;2023-03-23T09:26:18;99769.84;;;21.14;76.31
52777;BME280;38656;54.260;20.822;2023-03-23T09:28:45;99758.88;;;21.81;73.53
52777;BME280;38656;54.260;20.822;2023-03-23T09:31:12;99758.44;;;21.25;73.45
52777;BME280;38656;54.260;20.822;2023-03-23T09:33:38;99762.38;;;21.29;75.25
52777;BME280;38656;54.260;20.822;2023-03-23T09:36:05;99764.25;;;21.29;74.42
52777;BME280;38656;54.260;20.822;2023-03-23T09:38:34;99752.16;;;22.03;73.13
52777;BME280;38656;54.260;20.822;2023-03-23T09:49:22;99733.63;;;21.30;73.00
52777;BME280;38656;54.260;20.822;2023-03-23T09:51:55;99723.31;;;22.17;69.59
52777;BME280;38656;54.260;20.822;2023-03-23T09:56:54;99715.75;;;22.83;68.43
52777;BME280;38656;54.260;20.822;2023-03-23T10:00:03;99709.69;;;22.88;66.61
52777;BME280;38656;54.260;20.822;2023-03-23T10:02:38;99717.22;;;23.23;65.89
52777;BME280;38656;54.260;20.822;2023-03-23T10:05:26;99723.50;;;22.73;65.43
52777;BME280;38656;54.260;20.822;2023-03-23T10:07:54;99719.09;;;21.96;67.10
52777;BME280;38656;54.260;20.822;2023-03-23T10:10:46;99730.22;;;22.06;65.17
52777;BME280;38656;54.260;20.822;2023-03-23T10:15:55;99729.59;;;21.72;65.30
52777;BME280;38656;54.260;20.822;2023-03-23T10:18:29;99732.81;;;22.20;64.46
52777;BME280;38656;54.260;20.822;2023-03-23T10:21:00;99724.59;;;21.76;64.56
52777;BME280;38656;54.260;20.822;2023-03-23T10:28:52;99710.75;;;21.20;63.43
52777;BME280;38656;54.260;20.822;2023-03-23T10:31:30;99709.50;;;21.23;63.99
52777;BME280;38656;54.260;20.822;2023-03-23T10:34:02;99712.59;;;21.79;63.21
52777;BME280;38656;54.260;20.822;2023-03-23T10:36:36;99716.81;;;20.76;64.31
52777;BME280;38656;54.260;20.822;2023-03-23T10:39:16;99708.16;;;21.59;64.24
52777;BME280;38656;54.260;20.822;2023-03-23T10:41:44;99708.66;;;21.29;64.86
52777;BME280;38656;54.260;20.822;2023-03-23T10:44:18;99702.81;;;21.46;67.32
52777;BME280;38656;54.260;20.822;2023-03-23T10:46:59;99714.56;;;20.73;67.13
52777;BME280;38656;54.260;20.822;2023-03-23T10:49:43;99710.81;;;21.98;64.13
52777;BME280;38656;54.260;20.822;2023-03-23T10:52:31;99720.56;;;21.47;66.56
52777;BME280;38656;54.260;20.822;2023-03-23T10:55:15;99714.91;;;21.10;68.42
52777;BME280;38656;54.260;20.822;2023-03-23T10:57:45;99716.19;;;20.87;69.31
52777;BME280;38656;54.260;20.822;2023-03-23T11:02:44;99715.59;;;20.58;71.55
52777;BME280;38656;54.260;20.822;2023-03-23T11:05:40;99726.03;;;21.20;69.89
52777;BME280;38656;54.260;20.822;2023-03-23T11:08:23;99728.09;;;21.18;69.51
52777;BME280;38656;54.260;20.822;2023-03-23T11:10:52;99734.28;;;20.05;72.52
52777;BME280;38656;54.260;20.822;2023-03-23T11:13:20;99728.09;;;19.49;73.63
52777;BME280;38656;54.260;20.822;2023-03-23T11:15:48;99737.25;;;20.43;71.57
52777;BME280;38656;54.260;20.822;2023-03-23T11:18:26;99724.88;;;20.82;71.28
52777;BME280;38656;54.260;20.822;2023-03-23T11:20:58;99738.13;;;19.34;75.69
52777;BME280;38656;54.260;20.822;2023-03-23T11:23:28;99734.69;;;20.02;76.63
52777;BME280;38656;54.260;20.822;2023-03-23T11:28:34;99735.34;;;19.55;81.60
52777;BME280;38656;54.260;20.822;2023-03-23T11:31:03;99748.97;;;19.60;83.07
52777;BME280;38656;54.260;20.822;2023-03-23T11:34:03;99744.94;;;19.78;82.76
52777;BME280;38656;54.260;20.822;2023-03-23T11:36:37;99762.41;;;19.25;82.59
52777;BME280;38656;54.260;20.822;2023-03-23T11:41:58;99768.25;;;19.42;84.00
52777;BME280;38656;54.260;20.822;2023-03-23T11:44:33;99763.53;;;19.86;85.28
52777;BME280;38656;54.260;20.822;2023-03-23T11:47:13;99772.09;;;20.43;80.12
52777;BME280;38656;54.260;20.822;2023-03-23T11:52:27;99769.22;;;19.00;88.60
52777;BME280;38656;54.260;20.822;2023-03-23T11:57:46;99788.75;;;19.63;90.32
52777;BME280;38656;54.260;20.822;2023-03-23T12:00:18;99784.09;;;19.79;91.39
52777;BME280;38656;54.260;20.822;2023-03-23T12:03:04;99786.69;;;19.66;93.28
52777;BME280;38656;54.260;20.822;2023-03-23T12:08:25;99783.00;;;20.28;92.24
52777;BME280;38656;54.260;20.822;2023-03-23T12:20:40;99792.47;;;18.28;95.98
52777;BME280;38656;54.260;20.822;2023-03-23T12:23:29;99808.25;;;18.87;95.35
52777;BME280;38656;54.260;20.822;2023-03-23T12:28:26;99799.06;;;20.15;93.61
52777;BME280;38656;54.260;20.822;2023-03-23T12:31:07;99797.72;;;19.42;95.35
52777;BME280;38656;54.260;20.822;2023-03-23T12:34:11;99802.69;;;19.52;95.99
52777;BME280;38656;54.260;20.822;2023-03-23T12:47:42;99825.59;;;19.61;99.81
52777;BME280;38656;54.260;20.822;2023-03-23T12:50:24;99821.44;;;19.52;100.00
52777;BME280;38656;54.260;20.822;2023-03-23T12:53:26;99814.50;;;19.64;100.00
52777;BME280;38656;54.260;20.822;2023-03-23T12:58:42;99823.19;;;18.60;100.00
52777;BME280;38656;54.260;20.822;2023-03-23T13:01:18;99836.28;;;18.70;100.00
52777;BME280;38656;54.260;20.822;2023-03-23T13:04:12;99820.44;;;19.18;100.00
52777;BME280;38656;54.260;20.822;2023-03-23T13:06:45;99828.50;;;19.95;100.00
52777;BME280;38656;54.260;20.822;2023-03-23T13:11:44;99822.25;;;19.46;100.00
52777;BME280;38656;54.260;20.822;2023-03-23T13:14:16;99832.69;;;19.06;100.00
52777;BME280;38656;54.260;20.822;2023-03-23T13:22:56;99834.59;;;19.12;100.00
52777;BME280;38656;54.260;20.822;2023-03-23T13:28:25;99844.41;;;19.33;100.00
52777;BME280;38656;54.260;20.822;2023-03-23T13:33:25;99846.13;;;20.24;100.00
52777;BME280;38656;54.260;20.822;2023-03-23T13:35:52;99851.16;;;19.57;100.00
52777;BME280;38656;54.260;20.822;2023-03-23T13:38:25;99848.50;;;19.01;100.00
52777;BME280;38656;54.260;20.822;2023-03-23T13:40:52;99848.88;;;18.76;100.00
52777;BME280;38656;54.260;20.822;2023-03-23T13:43:31;99849.53;;;19.63;100.00
52777;BME280;38656;54.260;20.822;2023-03-23T13:48:46;99861.47;;;19.04;100.00
52777;BME280;38656;54.260;20.822;2023-03-23T13:54:23;99854.38;;;19.18;100.00
52777;BME280;38656;54.260;20.822;2023-03-23T13:56:54;99854.47;;;18.60;100.00
52777;BME280;38656;54.260;20.822;2023-03-23T14:02:33;99853.34;;;17.96;100.00
52777;BME280;38656;54.260;20.822;2023-03-23T14:04:51;99833.34;;;18.43;100.00
52777;BME280;38656;54.260;20.822;2023-03-23T14:07:21;99818.84;;;19.31;100.00
52777;BME280;38656;54.260;20.822;2023-03-23T14:09:50;99811.31;;;18.63;100.00
52777;BME280;38656;54.260;20.822;2023-03-23T14:12:26;99809.63;;;18.62;100.00
52777;BME280;38656;54.260;20.822;2023-03-23T14:14:58;99815.75;;;18.55;100.00
52777;BME280;38656;54.260;20.822;2023-03-23T14:17:30;99803.16;;;19.62;100.00
52777;BME280;38656;54.260;20.822;2023-03-23T14:19:59;99798.69;;;18.35;100.00
52777;BME280;38656;54.260;20.822;2023-03-23T14:22:28;99791.41;;;18.93;100.00
52777;BME280;38656;54.260;20.822;2023-03-23T14:25:08;99809.69;;;17.89;100.00
52777;BME280;38656;54.260;20.822;2023-03-23T14:27:36;99811.22;;;18.99;100.00
52777;BME280;38656;54.260;20.822;2023-03-23T14:30:08;99814.91;;;18.12;100.00
52777;BME280;38656;54.260;20.822;2023-03-23T14:32:38;99823.50;;;19.50;100.00
52777;BME280;38656;54.260;20.822;2023-03-23T14:35:11;99827.03;;;18.29;100.00
52777;BME280;38656;54.260;20.822;2023-03-23T14:37:39;99831.38;;;19.23;100.00
52777;BME280;38656;54.260;20.822;2023-03-23T14:40:08;99822.91;;;18.70;100.00
52777;BME280;38656;54.260;20.822;2023-03-23T14:42:38;99824.53;;;19.21;100.00
52777;BME280;38656;54.260;20.822;2023-03-23T14:45:06;99822.38;;;18.81;100.00